sensor_id;sensor_type;location;lat;lon;timestamp;temperature;humidity
20442;DHT22;10380;52.102;20.614;2023-02-15T00:02:26;4.20;99.90
20442;DHT22;10380;52.102;20.614;2023-02-15T00:04:53;4.20;99.90
20442;DHT22;10380;52.102;20.614;2023-02-15T00:07:22;4.20;99.90
20442;DHT22;10380;52.102;20.614;2023-02-15T00:09:49;4.20;99.90
20442;DHT22;10380;52.102;20.614;2023-02-15T00:12:16;4.20;99.90
20442;DHT22;10380;52.102;20.614;2023-02-15T00:14:43;4.20;99.90
20442;DHT22;10380;52.102;20.614;2023-02-15T00:17:10;4.20;99.90
20442;DHT22;10380;52.102;20.614;2023-02-15T00:19:37;4.20;99.90
20442;DHT22;10380;52.102;20.614;2023-02-15T00:22:03;4.20;99.90
20442;DHT22;10380;52.102;20.614;2023-02-15T00:24:30;4.20;99.90
20442;DHT22;10380;52.102;20.614;2023-02-15T00:26:58;4.10;99.90
20442;DHT22;10380;52.102;20.614;2023-02-15T00:29:25;4.10;99.90
20442;DHT22;10380;52.102;20.614;2023-02-15T00:31:52;4.10;99.90
20442;DHT22;10380;52.102;20.614;2023-02-15T00:34:22;4.10;99.90
20442;DHT22;10380;52.102;20.614;2023-02-15T00:36:49;4.10;99.90
20442;DHT22;10380;52.102;20.614;2023-02-15T00:39:17;4.10;99.90
20442;DHT22;10380;52.102;20.614;2023-02-15T00:41:46;4.10;99.90
20442;DHT22;10380;52.102;20.614;2023-02-15T00:44:15;4.20;99.90
20442;DHT22;10380;52.102;20.614;2023-02-15T00:46:42;4.20;99.90
20442;DHT22;10380;52.102;20.614;2023-02-15T00:49:10;4.10;99.90
20442;DHT22;10380;52.102;20.614;2023-02-15T00:51:38;4.20;99.90
20442;DHT22;10380;52.102;20.614;2023-02-15T00:54:06;4.20;99.90
20442;DHT22;10380;52.102;20.614;2023-02-15T00:56:35;4.20;99.90
20442;DHT22;10380;52.102;20.614;2023-02-15T00:59:02;4.20;99.90
20442;DHT22;10380;52.102;20.614;2023-02-15T01:01:29;4.20;99.90
20442;DHT22;10380;52.102;20.614;2023-02-15T01:03:56;4.20;99.90
20442;DHT22;10380;52.102;20.614;2023-02-15T01:06:23;4.20;99.90
20442;DHT22;10380;52.102;20.614;2023-02-15T01:08:51;4.20;99.90
20442;DHT22;10380;52.102;20.614;2023-02-15T01:11:21;4.10;99.90
20442;DHT22;10380;52.102;20.614;2023-02-15T01:13:50;4.10;99.90
20442;DHT22;10380;52.102;20.614;2023-02-15T01:16:18;4.10;99.90
20442;DHT22;10380;52.102;20.614;2023-02-15T01:18:45;4.10;99.90
20442;DHT22;10380;52.102;20.614;2023-02-15T01:21:14;4.10;99.90
20442;DHT22;10380;52.102;20.614;2023-02-15T01:23:42;4.10;99.90
20442;DHT22;10380;52.102;20.614;2023-02-15T01:26:09;4.10;99.90
20442;DHT22;10380;52.102;20.614;2023-02-15T01:28:37;4.10;99.90
20442;DHT22;10380;52.102;20.614;2023-02-15T01:31:10;4.10;99.90
20442;DHT22;10380;52.102;20.614;2023-02-15T01:33:38;4.10;99.90
20442;DHT22;10380;52.102;20.614;2023-02-15T01:36:06;4.10;99.90
20442;DHT22;10380;52.102;20.614;2023-02-15T01:38:34;4.10;99.90
20442;DHT22;10380;52.102;20.614;2023-02-15T01:41:01;4.10;99.90
20442;DHT22;10380;52.102;20.614;2023-02-15T01:43:55;4.00;99.90
20442;DHT22;10380;52.102;20.614;2023-02-15T01:46:30;4.10;99.90
20442;DHT22;10380;52.102;20.614;2023-02-15T01:49:19;4.10;99.90
20442;DHT22;10380;52.102;20.614;2023-02-15T01:51:49;4.00;99.90
20442;DHT22;10380;52.102;20.614;2023-02-15T01:54:27;4.00;99.90
20442;DHT22;10380;52.102;20.614;2023-02-15T01:57:00;4.00;99.90
20442;DHT22;10380;52.102;20.614;2023-02-15T01:59:31;4.00;99.90
20442;DHT22;10380;52.102;20.614;2023-02-15T02:01:59;4.00;99.90
20442;DHT22;10380;52.102;20.614;2023-02-15T02:04:31;4.00;99.90
20442;DHT22;10380;52.102;20.614;2023-02-15T02:07:00;4.00;99.90
20442;DHT22;10380;52.102;20.614;2023-02-15T02:09:28;4.00;99.90
20442;DHT22;10380;52.102;20.614;2023-02-15T02:11:55;4.00;99.90
20442;DHT22;10380;52.102;20.614;2023-02-15T02:14:23;4.00;99.90
20442;DHT22;10380;52.102;20.614;2023-02-15T02:31:48;3.90;99.90
20442;DHT22;10380;52.102;20.614;2023-02-15T02:34:30;3.90;99.90
20442;DHT22;10380;52.102;20.614;2023-02-15T02:37:16;3.90;99.90
20442;DHT22;10380;52.102;20.614;2023-02-15T02:42:34;3.90;99.90
20442;DHT22;10380;52.102;20.614;2023-02-15T02:45:13;3.80;99.90
20442;DHT22;10380;52.102;20.614;2023-02-15T02:47:49;3.80;99.90
20442;DHT22;10380;52.102;20.614;2023-02-15T02:50:22;3.80;99.90
20442;DHT22;10380;52.102;20.614;2023-02-15T02:52:51;3.80;99.90
20442;DHT22;10380;52.102;20.614;2023-02-15T02:55:49;3.80;99.90
20442;DHT22;10380;52.102;20.614;2023-02-15T02:58:31;3.80;99.90
20442;DHT22;10380;52.102;20.614;2023-02-15T03:01:05;3.80;99.90
20442;DHT22;10380;52.102;20.614;2023-02-15T03:03:37;3.80;99.90
20442;DHT22;10380;52.102;20.614;2023-02-15T03:06:19;3.80;99.90
20442;DHT22;10380;52.102;20.614;2023-02-15T03:08:49;3.80;99.90
20442;DHT22;10380;52.102;20.614;2023-02-15T03:11:17;3.80;99.90
20442;DHT22;10380;52.102;20.614;2023-02-15T03:13:47;3.80;99.90
20442;DHT22;10380;52.102;20.614;2023-02-15T03:16:16;3.80;99.90
20442;DHT22;10380;52.102;20.614;2023-02-15T03:21:48;3.80;99.90
20442;DHT22;10380;52.102;20.614;2023-02-15T03:24:38;3.80;99.90
20442;DHT22;10380;52.102;20.614;2023-02-15T03:27:14;3.80;99.90
20442;DHT22;10380;52.102;20.614;2023-02-15T03:29:50;3.80;99.90
20442;DHT22;10380;52.102;20.614;2023-02-15T03:32:18;3.80;99.90
20442;DHT22;10380;52.102;20.614;2023-02-15T03:34:46;3.80;99.90
20442;DHT22;10380;52.102;20.614;2023-02-15T03:37:39;3.80;99.90
20442;DHT22;10380;52.102;20.614;2023-02-15T03:46:28;3.70;99.90
20442;DHT22;10380;52.102;20.614;2023-02-15T03:49:12;3.70;99.90
20442;DHT22;10380;52.102;20.614;2023-02-15T03:51:42;3.70;99.90
20442;DHT22;10380;52.102;20.614;2023-02-15T03:54:24;3.70;99.90
20442;DHT22;10380;52.102;20.614;2023-02-15T03:57:21;3.70;99.90
20442;DHT22;10380;52.102;20.614;2023-02-15T04:00:15;3.70;99.90
20442;DHT22;10380;52.102;20.614;2023-02-15T04:03:22;3.70;99.90
20442;DHT22;10380;52.102;20.614;2023-02-15T04:05:51;3.70;99.90
20442;DHT22;10380;52.102;20.614;2023-02-15T04:08:18;3.70;99.90
20442;DHT22;10380;52.102;20.614;2023-02-15T04:10:45;3.60;99.90
20442;DHT22;10380;52.102;20.614;2023-02-15T04:13:29;3.60;99.90
20442;DHT22;10380;52.102;20.614;2023-02-15T04:15:56;3.60;99.90
20442;DHT22;10380;52.102;20.614;2023-02-15T04:18:42;3.60;99.90
20442;DHT22;10380;52.102;20.614;2023-02-15T04:21:30;3.60;99.90
20442;DHT22;10380;52.102;20.614;2023-02-15T04:24:16;3.60;99.90
20442;DHT22;10380;52.102;20.614;2023-02-15T04:27:03;3.50;99.90
20442;DHT22;10380;52.102;20.614;2023-02-15T04:29:31;3.50;99.90
20442;DHT22;10380;52.102;20.614;2023-02-15T04:32:00;3.50;99.90
20442;DHT22;10380;52.102;20.614;2023-02-15T04:34:27;3.50;99.90
20442;DHT22;10380;52.102;20.614;2023-02-15T04:36:55;3.50;99.90
20442;DHT22;10380;52.102;20.614;2023-02-15T04:39:22;3.40;99.90
20442;DHT22;10380;52.102;20.614;2023-02-15T04:41:49;3.40;99.90
20442;DHT22;10380;52.102;20.614;2023-02-15T04:44:16;3.40;99.90
20442;DHT22;10380;52.102;20.614;2023-02-15T04:46:42;3.40;99.90
20442;DHT22;10380;52.102;20.614;2023-02-15T04:49:10;3.50;99.90
20442;DHT22;10380;52.102;20.614;2023-02-15T04:51:37;3.30;99.90
20442;DHT22;10380;52.102;20.614;2023-02-15T04:54:04;3.20;99.90
20442;DHT22;10380;52.102;20.614;2023-02-15T04:56:31;3.20;99.90
20442;DHT22;10380;52.102;20.614;2023-02-15T04:59:00;3.20;99.90
20442;DHT22;10380;52.102;20.614;2023-02-15T05:01:27;3.20;99.90
20442;DHT22;10380;52.102;20.614;2023-02-15T05:03:54;3.10;99.90
20442;DHT22;10380;52.102;20.614;2023-02-15T05:06:22;3.10;99.90
20442;DHT22;10380;52.102;20.614;2023-02-15T05:08:49;3.10;99.90
20442;DHT22;10380;52.102;20.614;2023-02-15T05:11:15;3.10;99.90
20442;DHT22;10380;52.102;20.614;2023-02-15T05:13:44;3.10;99.90
20442;DHT22;10380;52.102;20.614;2023-02-15T05:16:11;3.10;99.90
20442;DHT22;10380;52.102;20.614;2023-02-15T05:18:38;3.10;99.90
20442;DHT22;10380;52.102;20.614;2023-02-15T05:21:05;3.10;99.90
20442;DHT22;10380;52.102;20.614;2023-02-15T05:23:32;3.10;99.90
20442;DHT22;10380;52.102;20.614;2023-02-15T05:25:59;3.10;99.90
20442;DHT22;10380;52.102;20.614;2023-02-15T05:28:45;3.10;99.90
20442;DHT22;10380;52.102;20.614;2023-02-15T05:31:14;3.20;99.90
20442;DHT22;10380;52.102;20.614;2023-02-15T05:33:43;3.20;99.90
20442;DHT22;10380;52.102;20.614;2023-02-15T05:36:10;3.20;99.90
20442;DHT22;10380;52.102;20.614;2023-02-15T05:38:38;3.20;99.90
20442;DHT22;10380;52.102;20.614;2023-02-15T05:41:06;3.20;99.90
20442;DHT22;10380;52.102;20.614;2023-02-15T05:43:33;3.20;99.90
20442;DHT22;10380;52.102;20.614;2023-02-15T05:46:01;3.20;99.90
20442;DHT22;10380;52.102;20.614;2023-02-15T05:48:28;3.20;99.90
20442;DHT22;10380;52.102;20.614;2023-02-15T05:50:59;3.20;99.90
20442;DHT22;10380;52.102;20.614;2023-02-15T05:53:28;3.20;99.90
20442;DHT22;10380;52.102;20.614;2023-02-15T05:55:55;3.20;99.90
20442;DHT22;10380;52.102;20.614;2023-02-15T05:58:28;3.20;99.90
20442;DHT22;10380;52.102;20.614;2023-02-15T06:00:56;3.30;99.90
20442;DHT22;10380;52.102;20.614;2023-02-15T06:03:24;3.30;99.90
20442;DHT22;10380;52.102;20.614;2023-02-15T06:05:52;3.30;99.90
20442;DHT22;10380;52.102;20.614;2023-02-15T06:08:19;3.40;99.90
20442;DHT22;10380;52.102;20.614;2023-02-15T06:10:47;3.30;99.90
20442;DHT22;10380;52.102;20.614;2023-02-15T06:13:13;3.40;99.90
20442;DHT22;10380;52.102;20.614;2023-02-15T06:15:40;3.40;99.90
20442;DHT22;10380;52.102;20.614;2023-02-15T06:18:07;3.30;99.90
20442;DHT22;10380;52.102;20.614;2023-02-15T06:20:34;3.20;99.90
20442;DHT22;10380;52.102;20.614;2023-02-15T06:23:01;3.20;99.90
20442;DHT22;10380;52.102;20.614;2023-02-15T06:25:27;3.20;99.90
20442;DHT22;10380;52.102;20.614;2023-02-15T06:27:55;3.20;99.90
20442;DHT22;10380;52.102;20.614;2023-02-15T06:30:22;3.30;99.90
20442;DHT22;10380;52.102;20.614;2023-02-15T06:32:48;3.30;99.90
20442;DHT22;10380;52.102;20.614;2023-02-15T06:35:15;3.40;99.90
20442;DHT22;10380;52.102;20.614;2023-02-15T06:37:45;3.50;99.90
20442;DHT22;10380;52.102;20.614;2023-02-15T06:40:12;3.50;99.90
20442;DHT22;10380;52.102;20.614;2023-02-15T06:42:39;3.50;99.90
20442;DHT22;10380;52.102;20.614;2023-02-15T06:45:07;3.40;99.90
20442;DHT22;10380;52.102;20.614;2023-02-15T06:47:36;3.40;99.90
20442;DHT22;10380;52.102;20.614;2023-02-15T06:50:06;3.40;99.90
20442;DHT22;10380;52.102;20.614;2023-02-15T06:52:33;3.30;99.90
20442;DHT22;10380;52.102;20.614;2023-02-15T06:55:00;3.30;99.90
20442;DHT22;10380;52.102;20.614;2023-02-15T06:57:27;3.30;99.90
20442;DHT22;10380;52.102;20.614;2023-02-15T06:59:54;3.30;99.90
20442;DHT22;10380;52.102;20.614;2023-02-15T07:02:21;3.30;99.90
20442;DHT22;10380;52.102;20.614;2023-02-15T07:04:47;3.40;99.90
20442;DHT22;10380;52.102;20.614;2023-02-15T07:07:14;3.40;99.90
20442;DHT22;10380;52.102;20.614;2023-02-15T07:09:42;3.40;99.90
20442;DHT22;10380;52.102;20.614;2023-02-15T07:12:09;3.40;99.90
20442;DHT22;10380;52.102;20.614;2023-02-15T07:14:55;3.40;99.90
20442;DHT22;10380;52.102;20.614;2023-02-15T07:17:22;3.30;99.90
20442;DHT22;10380;52.102;20.614;2023-02-15T07:20:12;3.30;99.90
20442;DHT22;10380;52.102;20.614;2023-02-15T07:22:39;3.30;99.90
20442;DHT22;10380;52.102;20.614;2023-02-15T07:25:08;3.30;99.90
20442;DHT22;10380;52.102;20.614;2023-02-15T07:27:36;3.30;99.90
20442;DHT22;10380;52.102;20.614;2023-02-15T07:30:04;3.30;99.90
20442;DHT22;10380;52.102;20.614;2023-02-15T07:32:33;3.30;99.90
20442;DHT22;10380;52.102;20.614;2023-02-15T07:35:00;3.40;99.90
20442;DHT22;10380;52.102;20.614;2023-02-15T07:37:27;3.40;99.90
20442;DHT22;10380;52.102;20.614;2023-02-15T07:39:55;3.40;99.90
20442;DHT22;10380;52.102;20.614;2023-02-15T07:42:21;3.50;99.90
20442;DHT22;10380;52.102;20.614;2023-02-15T07:44:49;3.60;99.90
20442;DHT22;10380;52.102;20.614;2023-02-15T07:47:16;3.60;99.90
20442;DHT22;10380;52.102;20.614;2023-02-15T07:49:43;3.70;99.90
20442;DHT22;10380;52.102;20.614;2023-02-15T07:52:10;3.70;99.90
20442;DHT22;10380;52.102;20.614;2023-02-15T07:54:37;3.70;99.90
20442;DHT22;10380;52.102;20.614;2023-02-15T07:57:04;3.60;99.90
20442;DHT22;10380;52.102;20.614;2023-02-15T07:59:31;3.60;99.90
20442;DHT22;10380;52.102;20.614;2023-02-15T08:01:58;3.60;99.90
20442;DHT22;10380;52.102;20.614;2023-02-15T08:04:25;3.60;99.90
20442;DHT22;10380;52.102;20.614;2023-02-15T08:06:53;3.60;99.90
20442;DHT22;10380;52.102;20.614;2023-02-15T08:09:21;3.70;99.90
20442;DHT22;10380;52.102;20.614;2023-02-15T08:11:48;3.70;99.90
20442;DHT22;10380;52.102;20.614;2023-02-15T08:14:21;3.60;99.90
20442;DHT22;10380;52.102;20.614;2023-02-15T08:16:53;3.70;99.90
20442;DHT22;10380;52.102;20.614;2023-02-15T08:19:30;3.70;99.90
20442;DHT22;10380;52.102;20.614;2023-02-15T08:22:00;3.70;99.90
20442;DHT22;10380;52.102;20.614;2023-02-15T08:24:31;3.70;99.90
20442;DHT22;10380;52.102;20.614;2023-02-15T08:26:58;3.80;99.90
20442;DHT22;10380;52.102;20.614;2023-02-15T08:29:28;3.80;99.90
20442;DHT22;10380;52.102;20.614;2023-02-15T08:31:57;3.80;99.90
20442;DHT22;10380;52.102;20.614;2023-02-15T08:34:31;3.90;99.90
20442;DHT22;10380;52.102;20.614;2023-02-15T08:36:58;3.90;99.90
20442;DHT22;10380;52.102;20.614;2023-02-15T08:39:25;3.90;99.90
20442;DHT22;10380;52.102;20.614;2023-02-15T08:41:52;3.90;99.90
20442;DHT22;10380;52.102;20.614;2023-02-15T08:44:19;3.90;99.90
20442;DHT22;10380;52.102;20.614;2023-02-15T08:46:48;4.00;99.90
20442;DHT22;10380;52.102;20.614;2023-02-15T08:49:20;4.00;99.90
20442;DHT22;10380;52.102;20.614;2023-02-15T08:51:48;3.90;99.90
20442;DHT22;10380;52.102;20.614;2023-02-15T08:54:18;4.00;99.90
20442;DHT22;10380;52.102;20.614;2023-02-15T08:56:46;4.00;99.90
20442;DHT22;10380;52.102;20.614;2023-02-15T08:59:15;4.10;99.90
20442;DHT22;10380;52.102;20.614;2023-02-15T09:01:44;4.00;99.90
20442;DHT22;10380;52.102;20.614;2023-02-15T09:04:11;4.00;99.90
20442;DHT22;10380;52.102;20.614;2023-02-15T09:06:42;4.00;99.90
20442;DHT22;10380;52.102;20.614;2023-02-15T09:09:14;3.90;99.90
20442;DHT22;10380;52.102;20.614;2023-02-15T09:11:43;4.00;99.90
20442;DHT22;10380;52.102;20.614;2023-02-15T09:14:13;4.00;99.90
20442;DHT22;10380;52.102;20.614;2023-02-15T09:16:44;4.00;99.90
20442;DHT22;10380;52.102;20.614;2023-02-15T09:19:13;4.10;99.90
20442;DHT22;10380;52.102;20.614;2023-02-15T09:21:40;4.10;99.90
20442;DHT22;10380;52.102;20.614;2023-02-15T09:24:10;4.10;99.90
20442;DHT22;10380;52.102;20.614;2023-02-15T09:26:40;4.10;99.90
20442;DHT22;10380;52.102;20.614;2023-02-15T09:29:08;4.10;99.90
20442;DHT22;10380;52.102;20.614;2023-02-15T09:31:43;4.10;99.90
20442;DHT22;10380;52.102;20.614;2023-02-15T09:34:13;4.20;99.90
20442;DHT22;10380;52.102;20.614;2023-02-15T09:36:41;4.20;99.90
20442;DHT22;10380;52.102;20.614;2023-02-15T09:39:13;4.20;99.90
20442;DHT22;10380;52.102;20.614;2023-02-15T09:50:10;4.20;99.90
20442;DHT22;10380;52.102;20.614;2023-02-15T09:53:20;4.30;99.90
20442;DHT22;10380;52.102;20.614;2023-02-15T09:56:14;4.30;99.90
20442;DHT22;10380;52.102;20.614;2023-02-15T10:07:48;4.30;99.90
20442;DHT22;10380;52.102;20.614;2023-02-15T10:10:43;4.40;99.90
20442;DHT22;10380;52.102;20.614;2023-02-15T10:13:39;4.40;99.90
20442;DHT22;10380;52.102;20.614;2023-02-15T10:19:42;4.60;99.90
20442;DHT22;10380;52.102;20.614;2023-02-15T10:25:33;4.50;99.90
20442;DHT22;10380;52.102;20.614;2023-02-15T10:28:11;4.50;99.90
20442;DHT22;10380;52.102;20.614;2023-02-15T10:30:50;4.60;99.90
20442;DHT22;10380;52.102;20.614;2023-02-15T10:33:37;4.60;99.90
20442;DHT22;10380;52.102;20.614;2023-02-15T10:38:54;4.70;99.90
20442;DHT22;10380;52.102;20.614;2023-02-15T10:42:30;4.70;99.90
20442;DHT22;10380;52.102;20.614;2023-02-15T10:47:10;4.90;99.90
20442;DHT22;10380;52.102;20.614;2023-02-15T10:55:43;4.90;99.90
20442;DHT22;10380;52.102;20.614;2023-02-15T11:00:59;4.80;99.90
20442;DHT22;10380;52.102;20.614;2023-02-15T11:06:26;4.70;99.90
20442;DHT22;10380;52.102;20.614;2023-02-15T11:09:00;4.60;99.90
20442;DHT22;10380;52.102;20.614;2023-02-15T11:11:32;4.60;99.90
20442;DHT22;10380;52.102;20.614;2023-02-15T11:14:03;4.60;99.90
20442;DHT22;10380;52.102;20.614;2023-02-15T11:16:39;4.50;99.90
20442;DHT22;10380;52.102;20.614;2023-02-15T11:19:34;4.60;99.90
20442;DHT22;10380;52.102;20.614;2023-02-15T11:22:05;4.60;99.90
20442;DHT22;10380;52.102;20.614;2023-02-15T11:24:40;4.60;99.90
20442;DHT22;10380;52.102;20.614;2023-02-15T11:27:27;4.70;99.90
20442;DHT22;10380;52.102;20.614;2023-02-15T11:32:38;4.80;99.90
20442;DHT22;10380;52.102;20.614;2023-02-15T11:35:20;4.90;99.90
20442;DHT22;10380;52.102;20.614;2023-02-15T11:38:14;5.00;99.90
20442;DHT22;10380;52.102;20.614;2023-02-15T11:40:52;5.00;99.90
20442;DHT22;10380;52.102;20.614;2023-02-15T11:46:11;5.20;99.90
20442;DHT22;10380;52.102;20.614;2023-02-15T11:48:39;5.20;99.90
20442;DHT22;10380;52.102;20.614;2023-02-15T11:51:11;5.20;99.90
20442;DHT22;10380;52.102;20.614;2023-02-15T11:53:40;5.20;99.90
20442;DHT22;10380;52.102;20.614;2023-02-15T11:56:17;5.00;99.90
20442;DHT22;10380;52.102;20.614;2023-02-15T11:58:45;5.00;99.90
20442;DHT22;10380;52.102;20.614;2023-02-15T12:03:51;4.90;99.90
20442;DHT22;10380;52.102;20.614;2023-02-15T12:11:40;4.80;99.90
20442;DHT22;10380;52.102;20.614;2023-02-15T12:14:12;4.90;99.90
20442;DHT22;10380;52.102;20.614;2023-02-15T12:16:51;5.00;99.90
20442;DHT22;10380;52.102;20.614;2023-02-15T12:22:02;5.00;99.90
20442;DHT22;10380;52.102;20.614;2023-02-15T12:24:34;5.10;99.90
20442;DHT22;10380;52.102;20.614;2023-02-15T12:27:35;5.10;99.90
20442;DHT22;10380;52.102;20.614;2023-02-15T12:30:13;5.10;99.90
20442;DHT22;10380;52.102;20.614;2023-02-15T12:32:53;5.20;99.90
20442;DHT22;10380;52.102;20.614;2023-02-15T12:35:29;5.20;99.90
20442;DHT22;10380;52.102;20.614;2023-02-15T12:40:38;5.20;99.90
20442;DHT22;10380;52.102;20.614;2023-02-15T12:43:35;5.20;99.90
20442;DHT22;10380;52.102;20.614;2023-02-15T12:46:24;5.20;99.90
20442;DHT22;10380;52.102;20.614;2023-02-15T12:49:17;5.20;99.90
20442;DHT22;10380;52.102;20.614;2023-02-15T12:51:51;5.20;99.90
20442;DHT22;10380;52.102;20.614;2023-02-15T12:54:40;5.20;99.90
20442;DHT22;10380;52.102;20.614;2023-02-15T12:57:27;5.20;99.90
20442;DHT22;10380;52.102;20.614;2023-02-15T13:00:00;5.10;99.90
20442;DHT22;10380;52.102;20.614;2023-02-15T13:02:48;5.10;99.90
20442;DHT22;10380;52.102;20.614;2023-02-15T13:05:28;5.00;99.90
20442;DHT22;10380;52.102;20.614;2023-02-15T13:08:03;5.00;99.90
20442;DHT22;10380;52.102;20.614;2023-02-15T13:10:37;5.00;99.90
20442;DHT22;10380;52.102;20.614;2023-02-15T13:13:18;4.90;99.90
20442;DHT22;10380;52.102;20.614;2023-02-15T13:15:53;4.90;99.90
20442;DHT22;10380;52.102;20.614;2023-02-15T13:18:31;4.80;99.90
20442;DHT22;10380;52.102;20.614;2023-02-15T13:21:20;4.70;99.90
20442;DHT22;10380;52.102;20.614;2023-02-15T13:23:56;4.70;99.90
20442;DHT22;10380;52.102;20.614;2023-02-15T13:26:26;4.70;99.90
20442;DHT22;10380;52.102;20.614;2023-02-15T13:29:05;4.60;99.90
20442;DHT22;10380;52.102;20.614;2023-02-15T13:31:35;4.70;99.90
20442;DHT22;10380;52.102;20.614;2023-02-15T13:34:20;4.70;99.90
20442;DHT22;10380;52.102;20.614;2023-02-15T13:42:18;4.90;99.90
20442;DHT22;10380;52.102;20.614;2023-02-15T13:44:57;4.90;99.90
20442;DHT22;10380;52.102;20.614;2023-02-15T13:53:39;4.80;99.90
20442;DHT22;10380;52.102;20.614;2023-02-15T13:56:17;4.80;99.90
20442;DHT22;10380;52.102;20.614;2023-02-15T14:01:46;4.80;99.90
20442;DHT22;10380;52.102;20.614;2023-02-15T14:23:24;4.80;99.90
20442;DHT22;10380;52.102;20.614;2023-02-15T14:26:04;4.90;99.90
20442;DHT22;10380;52.102;20.614;2023-02-15T14:31:11;4.70;99.90
20442;DHT22;10380;52.102;20.614;2023-02-15T14:34:08;4.70;99.90
20442;DHT22;10380;52.102;20.614;2023-02-15T14:36:39;4.70;99.90
20442;DHT22;10380;52.102;20.614;2023-02-15T14:39:22;4.60;99.90
20442;DHT22;10380;52.102;20.614;2023-02-15T14:45:36;4.40;99.90
20442;DHT22;10380;52.102;20.614;2023-02-15T14:48:15;4.30;99.90
20442;DHT22;10380;52.102;20.614;2023-02-15T14:50:48;4.20;99.90
20442;DHT22;10380;52.102;20.614;2023-02-15T14:56:05;4.20;99.90
20442;DHT22;10380;52.102;20.614;2023-02-15T14:58:36;4.20;99.90
20442;DHT22;10380;52.102;20.614;2023-02-15T15:01:11;4.30;99.90
20442;DHT22;10380;52.102;20.614;2023-02-15T15:03:50;4.30;99.90
20442;DHT22;10380;52.102;20.614;2023-02-15T15:06:40;4.40;99.90
20442;DHT22;10380;52.102;20.614;2023-02-15T15:11:52;4.40;99.90
20442;DHT22;10380;52.102;20.614;2023-02-15T15:17:06;4.30;99.90
20442;DHT22;10380;52.102;20.614;2023-02-15T15:24:56;4.20;99.90
20442;DHT22;10380;52.102;20.614;2023-02-15T15:27:46;4.20;99.90
20442;DHT22;10380;52.102;20.614;2023-02-15T15:49:08;3.60;99.90
20442;DHT22;10380;52.102;20.614;2023-02-15T15:51:40;3.60;99.90
20442;DHT22;10380;52.102;20.614;2023-02-15T15:54:18;3.60;99.90
20442;DHT22;10380;52.102;20.614;2023-02-15T15:57:01;3.60;99.90
20442;DHT22;10380;52.102;20.614;2023-02-15T15:59:32;3.60;99.90
20442;DHT22;10380;52.102;20.614;2023-02-15T16:02:13;3.60;99.90
20442;DHT22;10380;52.102;20.614;2023-02-15T16:04:42;3.60;99.90
20442;DHT22;10380;52.102;20.614;2023-02-15T16:10:04;3.70;99.90
20442;DHT22;10380;52.102;20.614;2023-02-15T16:12:36;3.70;99.90
20442;DHT22;10380;52.102;20.614;2023-02-15T16:17:52;3.80;99.90
20442;DHT22;10380;52.102;20.614;2023-02-15T16:20:24;3.80;99.90
20442;DHT22;10380;52.102;20.614;2023-02-15T16:23:23;3.90;99.90
20442;DHT22;10380;52.102;20.614;2023-02-15T16:28:51;3.80;99.90
20442;DHT22;10380;52.102;20.614;2023-02-15T16:31:21;3.80;99.90
20442;DHT22;10380;52.102;20.614;2023-02-15T16:33:53;3.80;99.90
20442;DHT22;10380;52.102;20.614;2023-02-15T16:36:26;3.80;99.90
20442;DHT22;10380;52.102;20.614;2023-02-15T16:41:28;3.80;99.90
20442;DHT22;10380;52.102;20.614;2023-02-15T16:44:04;3.70;99.90
20442;DHT22;10380;52.102;20.614;2023-02-15T16:46:43;3.70;99.90
20442;DHT22;10380;52.102;20.614;2023-02-15T16:49:24;3.70;99.90
20442;DHT22;10380;52.102;20.614;2023-02-15T16:52:02;3.60;99.90
20442;DHT22;10380;52.102;20.614;2023-02-15T16:54:32;3.60;99.90
20442;DHT22;10380;52.102;20.614;2023-02-15T16:57:01;3.70;99.90
20442;DHT22;10380;52.102;20.614;2023-02-15T16:59:39;3.70;99.90
20442;DHT22;10380;52.102;20.614;2023-02-15T17:02:20;3.70;99.90
20442;DHT22;10380;52.102;20.614;2023-02-15T17:05:14;3.70;99.90
20442;DHT22;10380;52.102;20.614;2023-02-15T17:08:19;3.70;99.90
20442;DHT22;10380;52.102;20.614;2023-02-15T17:13:27;3.70;99.90
20442;DHT22;10380;52.102;20.614;2023-02-15T17:18:39;3.80;99.90
20442;DHT22;10380;52.102;20.614;2023-02-15T17:21:16;3.80;99.90
20442;DHT22;10380;52.102;20.614;2023-02-15T17:23:48;3.80;99.90
20442;DHT22;10380;52.102;20.614;2023-02-15T17:26:29;3.80;99.90
20442;DHT22;10380;52.102;20.614;2023-02-15T17:31:37;3.80;99.90
20442;DHT22;10380;52.102;20.614;2023-02-15T17:34:05;3.70;99.90
20442;DHT22;10380;52.102;20.614;2023-02-15T17:36:32;3.70;99.90
20442;DHT22;10380;52.102;20.614;2023-02-15T17:39:05;3.70;99.90
20442;DHT22;10380;52.102;20.614;2023-02-15T17:41:34;3.70;99.90
20442;DHT22;10380;52.102;20.614;2023-02-15T17:44:02;3.70;99.90
20442;DHT22;10380;52.102;20.614;2023-02-15T17:46:34;3.70;99.90
20442;DHT22;10380;52.102;20.614;2023-02-15T17:49:02;3.70;99.90
20442;DHT22;10380;52.102;20.614;2023-02-15T17:51:30;3.70;99.90
20442;DHT22;10380;52.102;20.614;2023-02-15T17:53:59;3.70;99.90
20442;DHT22;10380;52.102;20.614;2023-02-15T17:56:44;3.70;99.90
20442;DHT22;10380;52.102;20.614;2023-02-15T17:59:11;3.60;99.90
20442;DHT22;10380;52.102;20.614;2023-02-15T18:01:45;3.60;99.90
20442;DHT22;10380;52.102;20.614;2023-02-15T18:04:34;3.60;99.90
20442;DHT22;10380;52.102;20.614;2023-02-15T18:07:21;3.60;99.90
20442;DHT22;10380;52.102;20.614;2023-02-15T18:10:17;3.60;99.90
20442;DHT22;10380;52.102;20.614;2023-02-15T18:13:03;3.60;99.90
20442;DHT22;10380;52.102;20.614;2023-02-15T18:15:30;3.60;99.90
20442;DHT22;10380;52.102;20.614;2023-02-15T18:17:57;3.60;99.90
20442;DHT22;10380;52.102;20.614;2023-02-15T18:20:30;3.50;99.90
20442;DHT22;10380;52.102;20.614;2023-02-15T18:22:58;3.50;99.90
20442;DHT22;10380;52.102;20.614;2023-02-15T18:25:27;3.50;99.90
20442;DHT22;10380;52.102;20.614;2023-02-15T18:27:54;3.50;99.90
20442;DHT22;10380;52.102;20.614;2023-02-15T18:30:23;3.50;99.90
20442;DHT22;10380;52.102;20.614;2023-02-15T18:32:52;3.40;99.90
20442;DHT22;10380;52.102;20.614;2023-02-15T18:35:25;3.40;99.90
20442;DHT22;10380;52.102;20.614;2023-02-15T18:37:54;3.30;99.90
20442;DHT22;10380;52.102;20.614;2023-02-15T18:40:24;3.30;99.90
20442;DHT22;10380;52.102;20.614;2023-02-15T18:42:51;3.30;99.90
20442;DHT22;10380;52.102;20.614;2023-02-15T18:45:21;3.40;99.90
20442;DHT22;10380;52.102;20.614;2023-02-15T18:47:50;3.40;99.90
20442;DHT22;10380;52.102;20.614;2023-02-15T18:50:19;3.40;99.90
20442;DHT22;10380;52.102;20.614;2023-02-15T18:52:48;3.40;99.90
20442;DHT22;10380;52.102;20.614;2023-02-15T18:55:19;3.40;99.90
20442;DHT22;10380;52.102;20.614;2023-02-15T18:57:48;3.40;99.90
20442;DHT22;10380;52.102;20.614;2023-02-15T19:00:25;3.40;99.90
20442;DHT22;10380;52.102;20.614;2023-02-15T19:02:56;3.40;99.90
20442;DHT22;10380;52.102;20.614;2023-02-15T19:05:23;3.40;99.90